sensor_id;sensor_type;location;lat;lon;timestamp;temperature;humidity
54684;DHT22;40582;53.100;6.686;2023-05-07T00:01:39;12.30;99.90
54684;DHT22;40582;53.100;6.686;2023-05-07T00:04:05;12.30;99.90
54684;DHT22;40582;53.100;6.686;2023-05-07T00:06:32;12.30;99.90
54684;DHT22;40582;53.100;6.686;2023-05-07T00:08:58;12.30;99.90
54684;DHT22;40582;53.100;6.686;2023-05-07T00:11:25;12.30;99.90
54684;DHT22;40582;53.100;6.686;2023-05-07T00:13:51;12.20;99.90
54684;DHT22;40582;53.100;6.686;2023-05-07T00:16:17;12.10;99.90
54684;DHT22;40582;53.100;6.686;2023-05-07T00:18:43;12.10;99.90
54684;DHT22;40582;53.100;6.686;2023-05-07T00:21:08;12.10;99.90
54684;DHT22;40582;53.100;6.686;2023-05-07T00:23:34;12.10;99.90
54684;DHT22;40582;53.100;6.686;2023-05-07T00:26:00;12.20;99.90
54684;DHT22;40582;53.100;6.686;2023-05-07T00:28:25;12.20;99.90
54684;DHT22;40582;53.100;6.686;2023-05-07T00:30:51;12.10;99.90
54684;DHT22;40582;53.100;6.686;2023-05-07T00:33:17;12.00;99.90
54684;DHT22;40582;53.100;6.686;2023-05-07T00:35:43;11.90;99.90
54684;DHT22;40582;53.100;6.686;2023-05-07T00:38:09;11.90;99.90
54684;DHT22;40582;53.100;6.686;2023-05-07T00:40:35;11.90;99.90
54684;DHT22;40582;53.100;6.686;2023-05-07T00:43:01;11.90;99.90
54684;DHT22;40582;53.100;6.686;2023-05-07T00:45:27;11.80;99.90
54684;DHT22;40582;53.100;6.686;2023-05-07T00:47:57;11.90;99.90
54684;DHT22;40582;53.100;6.686;2023-05-07T00:50:23;11.90;99.90
54684;DHT22;40582;53.100;6.686;2023-05-07T00:52:49;11.90;99.90
54684;DHT22;40582;53.100;6.686;2023-05-07T00:55:15;11.80;99.90
54684;DHT22;40582;53.100;6.686;2023-05-07T00:57:41;11.80;99.90
54684;DHT22;40582;53.100;6.686;2023-05-07T01:00:08;11.80;99.90
54684;DHT22;40582;53.100;6.686;2023-05-07T01:02:35;11.70;99.90
54684;DHT22;40582;53.100;6.686;2023-05-07T01:05:02;11.60;99.90
54684;DHT22;40582;53.100;6.686;2023-05-07T01:07:32;11.60;99.90
54684;DHT22;40582;53.100;6.686;2023-05-07T01:09:59;11.50;99.90
54684;DHT22;40582;53.100;6.686;2023-05-07T01:12:25;11.50;99.90
54684;DHT22;40582;53.100;6.686;2023-05-07T01:14:51;11.60;99.90
54684;DHT22;40582;53.100;6.686;2023-05-07T01:17:17;11.50;99.90
54684;DHT22;40582;53.100;6.686;2023-05-07T01:19:43;11.50;99.90
54684;DHT22;40582;53.100;6.686;2023-05-07T01:22:10;11.50;99.90
54684;DHT22;40582;53.100;6.686;2023-05-07T01:24:37;11.40;99.90
54684;DHT22;40582;53.100;6.686;2023-05-07T01:27:03;11.40;99.90
54684;DHT22;40582;53.100;6.686;2023-05-07T01:29:29;11.40;99.90
54684;DHT22;40582;53.100;6.686;2023-05-07T01:32:00;11.40;99.90
54684;DHT22;40582;53.100;6.686;2023-05-07T01:34:28;11.30;99.90
54684;DHT22;40582;53.100;6.686;2023-05-07T01:36:54;11.30;99.90
54684;DHT22;40582;53.100;6.686;2023-05-07T01:39:23;11.30;99.90
54684;DHT22;40582;53.100;6.686;2023-05-07T01:41:50;11.30;99.90
54684;DHT22;40582;53.100;6.686;2023-05-07T01:44:16;11.30;99.90
54684;DHT22;40582;53.100;6.686;2023-05-07T01:46:43;11.20;99.90
54684;DHT22;40582;53.100;6.686;2023-05-07T01:49:10;11.20;99.90
54684;DHT22;40582;53.100;6.686;2023-05-07T01:51:36;11.20;99.90
54684;DHT22;40582;53.100;6.686;2023-05-07T01:54:02;11.20;99.90
54684;DHT22;40582;53.100;6.686;2023-05-07T01:56:27;11.00;99.90
54684;DHT22;40582;53.100;6.686;2023-05-07T01:58:53;11.00;99.90
54684;DHT22;40582;53.100;6.686;2023-05-07T02:01:19;10.90;99.90
54684;DHT22;40582;53.100;6.686;2023-05-07T02:03:44;10.90;99.90
54684;DHT22;40582;53.100;6.686;2023-05-07T02:06:10;10.90;99.90
54684;DHT22;40582;53.100;6.686;2023-05-07T02:08:36;11.00;99.90
54684;DHT22;40582;53.100;6.686;2023-05-07T02:11:01;10.90;99.90
54684;DHT22;40582;53.100;6.686;2023-05-07T02:13:33;11.00;99.90
54684;DHT22;40582;53.100;6.686;2023-05-07T02:16:00;11.00;99.90
54684;DHT22;40582;53.100;6.686;2023-05-07T02:18:25;10.90;99.90
54684;DHT22;40582;53.100;6.686;2023-05-07T02:20:51;10.90;99.90
54684;DHT22;40582;53.100;6.686;2023-05-07T02:23:17;10.90;99.90
54684;DHT22;40582;53.100;6.686;2023-05-07T02:25:42;10.90;99.90
54684;DHT22;40582;53.100;6.686;2023-05-07T02:28:08;10.90;99.90
54684;DHT22;40582;53.100;6.686;2023-05-07T02:30:34;11.00;99.90
54684;DHT22;40582;53.100;6.686;2023-05-07T02:32:59;11.00;99.90
54684;DHT22;40582;53.100;6.686;2023-05-07T02:35:25;10.90;99.90
54684;DHT22;40582;53.100;6.686;2023-05-07T02:37:51;11.00;99.90
54684;DHT22;40582;53.100;6.686;2023-05-07T02:40:17;11.00;99.90
54684;DHT22;40582;53.100;6.686;2023-05-07T02:42:42;11.00;99.90
54684;DHT22;40582;53.100;6.686;2023-05-07T02:45:09;11.00;99.90
54684;DHT22;40582;53.100;6.686;2023-05-07T02:47:34;11.00;99.90
54684;DHT22;40582;53.100;6.686;2023-05-07T02:50:00;11.10;99.90
54684;DHT22;40582;53.100;6.686;2023-05-07T02:52:26;11.00;99.90
54684;DHT22;40582;53.100;6.686;2023-05-07T02:54:51;11.00;99.90
54684;DHT22;40582;53.100;6.686;2023-05-07T02:57:17;11.00;99.90
54684;DHT22;40582;53.100;6.686;2023-05-07T02:59:43;11.00;99.90
54684;DHT22;40582;53.100;6.686;2023-05-07T03:02:09;11.10;99.90
54684;DHT22;40582;53.100;6.686;2023-05-07T03:04:35;11.00;99.90
54684;DHT22;40582;53.100;6.686;2023-05-07T03:07:00;11.00;99.90
54684;DHT22;40582;53.100;6.686;2023-05-07T03:09:26;11.00;99.90
54684;DHT22;40582;53.100;6.686;2023-05-07T03:11:52;11.10;99.90
54684;DHT22;40582;53.100;6.686;2023-05-07T03:14:17;11.00;99.90
54684;DHT22;40582;53.100;6.686;2023-05-07T03:16:43;11.00;99.90
54684;DHT22;40582;53.100;6.686;2023-05-07T03:19:09;11.00;99.90
54684;DHT22;40582;53.100;6.686;2023-05-07T03:21:34;11.00;99.90
54684;DHT22;40582;53.100;6.686;2023-05-07T03:24:00;11.00;99.90
54684;DHT22;40582;53.100;6.686;2023-05-07T03:26:26;11.00;99.90
54684;DHT22;40582;53.100;6.686;2023-05-07T03:28:51;11.00;99.90
54684;DHT22;40582;53.100;6.686;2023-05-07T03:31:18;11.00;99.90
54684;DHT22;40582;53.100;6.686;2023-05-07T03:33:57;11.00;99.90
54684;DHT22;40582;53.100;6.686;2023-05-07T03:36:23;11.00;99.90
54684;DHT22;40582;53.100;6.686;2023-05-07T03:38:50;10.90;99.90
54684;DHT22;40582;53.100;6.686;2023-05-07T03:41:15;10.90;99.90
54684;DHT22;40582;53.100;6.686;2023-05-07T03:43:41;10.90;99.90
54684;DHT22;40582;53.100;6.686;2023-05-07T03:46:07;10.80;99.90
54684;DHT22;40582;53.100;6.686;2023-05-07T03:48:33;10.80;99.90
54684;DHT22;40582;53.100;6.686;2023-05-07T03:50:59;10.80;99.90
54684;DHT22;40582;53.100;6.686;2023-05-07T03:53:25;10.80;99.90
54684;DHT22;40582;53.100;6.686;2023-05-07T03:55:50;10.80;99.90
54684;DHT22;40582;53.100;6.686;2023-05-07T03:58:16;10.80;99.90
54684;DHT22;40582;53.100;6.686;2023-05-07T04:00:42;10.70;99.90
54684;DHT22;40582;53.100;6.686;2023-05-07T04:03:08;10.70;99.90
54684;DHT22;40582;53.100;6.686;2023-05-07T04:05:34;10.60;99.90
54684;DHT22;40582;53.100;6.686;2023-05-07T04:08:00;10.60;99.90
54684;DHT22;40582;53.100;6.686;2023-05-07T04:10:26;10.60;99.90
54684;DHT22;40582;53.100;6.686;2023-05-07T04:12:53;10.60;99.90
54684;DHT22;40582;53.100;6.686;2023-05-07T04:15:19;10.60;99.90
54684;DHT22;40582;53.100;6.686;2023-05-07T04:17:45;10.70;99.90
54684;DHT22;40582;53.100;6.686;2023-05-07T04:20:14;10.70;99.90
54684;DHT22;40582;53.100;6.686;2023-05-07T04:22:40;10.80;99.90
54684;DHT22;40582;53.100;6.686;2023-05-07T04:25:07;10.70;99.90
54684;DHT22;40582;53.100;6.686;2023-05-07T04:27:34;10.70;99.90
54684;DHT22;40582;53.100;6.686;2023-05-07T04:30:01;10.70;99.90
54684;DHT22;40582;53.100;6.686;2023-05-07T04:32:28;10.80;99.90
54684;DHT22;40582;53.100;6.686;2023-05-07T04:34:55;10.80;99.90
54684;DHT22;40582;53.100;6.686;2023-05-07T04:37:21;10.80;99.90
54684;DHT22;40582;53.100;6.686;2023-05-07T04:39:47;10.80;99.90
54684;DHT22;40582;53.100;6.686;2023-05-07T04:42:16;10.80;99.90
54684;DHT22;40582;53.100;6.686;2023-05-07T04:44:43;10.80;99.90
54684;DHT22;40582;53.100;6.686;2023-05-07T04:47:09;10.80;99.90
54684;DHT22;40582;53.100;6.686;2023-05-07T04:49:35;10.80;99.90
54684;DHT22;40582;53.100;6.686;2023-05-07T04:52:01;10.90;99.90
54684;DHT22;40582;53.100;6.686;2023-05-07T04:54:26;10.80;99.90
54684;DHT22;40582;53.100;6.686;2023-05-07T04:56:52;10.80;99.90
54684;DHT22;40582;53.100;6.686;2023-05-07T04:59:18;10.90;99.90
54684;DHT22;40582;53.100;6.686;2023-05-07T05:01:43;10.90;99.90
54684;DHT22;40582;53.100;6.686;2023-05-07T05:04:09;10.90;99.90
54684;DHT22;40582;53.100;6.686;2023-05-07T05:06:35;10.90;99.90
54684;DHT22;40582;53.100;6.686;2023-05-07T05:09:01;10.90;99.90
54684;DHT22;40582;53.100;6.686;2023-05-07T05:11:26;10.90;99.90
54684;DHT22;40582;53.100;6.686;2023-05-07T05:13:52;10.80;99.90
54684;DHT22;40582;53.100;6.686;2023-05-07T05:16:18;10.80;99.90
54684;DHT22;40582;53.100;6.686;2023-05-07T05:18:43;10.70;99.90
54684;DHT22;40582;53.100;6.686;2023-05-07T05:21:09;10.70;99.90
54684;DHT22;40582;53.100;6.686;2023-05-07T05:23:35;10.70;99.90
54684;DHT22;40582;53.100;6.686;2023-05-07T05:26:01;10.70;99.90
54684;DHT22;40582;53.100;6.686;2023-05-07T05:28:26;10.80;99.90
54684;DHT22;40582;53.100;6.686;2023-05-07T05:30:53;10.80;99.90
54684;DHT22;40582;53.100;6.686;2023-05-07T05:33:19;10.90;99.90
54684;DHT22;40582;53.100;6.686;2023-05-07T05:35:45;10.90;99.90
54684;DHT22;40582;53.100;6.686;2023-05-07T05:38:10;10.90;99.90
54684;DHT22;40582;53.100;6.686;2023-05-07T05:40:36;10.90;99.90
54684;DHT22;40582;53.100;6.686;2023-05-07T05:43:02;11.00;99.90
54684;DHT22;40582;53.100;6.686;2023-05-07T05:45:27;11.10;99.90
54684;DHT22;40582;53.100;6.686;2023-05-07T05:47:53;11.10;99.90
54684;DHT22;40582;53.100;6.686;2023-05-07T05:50:21;11.20;99.90
54684;DHT22;40582;53.100;6.686;2023-05-07T05:52:47;11.20;99.90
54684;DHT22;40582;53.100;6.686;2023-05-07T05:55:12;11.10;99.90
54684;DHT22;40582;53.100;6.686;2023-05-07T05:57:38;11.10;99.90
54684;DHT22;40582;53.100;6.686;2023-05-07T06:00:04;11.10;99.90
54684;DHT22;40582;53.100;6.686;2023-05-07T06:02:30;11.10;99.90
54684;DHT22;40582;53.100;6.686;2023-05-07T06:04:56;11.10;99.90
54684;DHT22;40582;53.100;6.686;2023-05-07T06:07:21;11.10;99.90
54684;DHT22;40582;53.100;6.686;2023-05-07T06:09:47;11.20;99.90
54684;DHT22;40582;53.100;6.686;2023-05-07T06:12:13;11.20;99.90
54684;DHT22;40582;53.100;6.686;2023-05-07T06:14:38;11.20;99.90
54684;DHT22;40582;53.100;6.686;2023-05-07T06:17:04;11.20;99.90
54684;DHT22;40582;53.100;6.686;2023-05-07T06:19:30;11.20;99.90
54684;DHT22;40582;53.100;6.686;2023-05-07T06:21:56;11.20;99.90
54684;DHT22;40582;53.100;6.686;2023-05-07T06:24:22;11.10;99.90
54684;DHT22;40582;53.100;6.686;2023-05-07T06:26:48;11.10;99.90
54684;DHT22;40582;53.100;6.686;2023-05-07T06:29:13;11.10;99.90
54684;DHT22;40582;53.100;6.686;2023-05-07T06:31:39;11.20;99.90
54684;DHT22;40582;53.100;6.686;2023-05-07T06:34:05;11.30;99.90
54684;DHT22;40582;53.100;6.686;2023-05-07T06:36:30;11.30;99.90
54684;DHT22;40582;53.100;6.686;2023-05-07T06:38:56;11.40;99.90
54684;DHT22;40582;53.100;6.686;2023-05-07T06:41:22;11.30;99.90
54684;DHT22;40582;53.100;6.686;2023-05-07T06:43:48;11.40;99.90
54684;DHT22;40582;53.100;6.686;2023-05-07T06:46:14;11.50;99.90
54684;DHT22;40582;53.100;6.686;2023-05-07T06:48:40;11.50;99.90
54684;DHT22;40582;53.100;6.686;2023-05-07T06:51:06;11.50;99.90
54684;DHT22;40582;53.100;6.686;2023-05-07T06:53:31;11.60;99.90
54684;DHT22;40582;53.100;6.686;2023-05-07T06:55:57;11.70;99.90
54684;DHT22;40582;53.100;6.686;2023-05-07T06:58:23;11.70;99.90
54684;DHT22;40582;53.100;6.686;2023-05-07T07:00:48;11.70;99.90
54684;DHT22;40582;53.100;6.686;2023-05-07T07:03:14;11.70;99.90
54684;DHT22;40582;53.100;6.686;2023-05-07T07:05:41;11.60;99.90
54684;DHT22;40582;53.100;6.686;2023-05-07T07:08:06;11.70;99.90
54684;DHT22;40582;53.100;6.686;2023-05-07T07:10:32;11.70;99.90
54684;DHT22;40582;53.100;6.686;2023-05-07T07:12:58;11.80;99.90
54684;DHT22;40582;53.100;6.686;2023-05-07T07:15:24;11.80;99.90
54684;DHT22;40582;53.100;6.686;2023-05-07T07:17:50;11.90;99.90
54684;DHT22;40582;53.100;6.686;2023-05-07T07:20:16;12.00;99.90
54684;DHT22;40582;53.100;6.686;2023-05-07T07:22:42;12.10;99.90
54684;DHT22;40582;53.100;6.686;2023-05-07T07:25:08;12.10;99.90
54684;DHT22;40582;53.100;6.686;2023-05-07T07:27:34;12.10;99.90
54684;DHT22;40582;53.100;6.686;2023-05-07T07:30:00;12.00;99.90
54684;DHT22;40582;53.100;6.686;2023-05-07T07:32:26;12.00;99.90
54684;DHT22;40582;53.100;6.686;2023-05-07T07:34:51;12.00;99.90
54684;DHT22;40582;53.100;6.686;2023-05-07T07:37:17;11.90;99.90
54684;DHT22;40582;53.100;6.686;2023-05-07T07:39:43;12.00;99.90
54684;DHT22;40582;53.100;6.686;2023-05-07T07:42:08;12.00;99.90
54684;DHT22;40582;53.100;6.686;2023-05-07T07:44:34;12.20;99.90
54684;DHT22;40582;53.100;6.686;2023-05-07T07:47:00;12.30;99.90
54684;DHT22;40582;53.100;6.686;2023-05-07T07:49:26;12.30;99.90
54684;DHT22;40582;53.100;6.686;2023-05-07T07:51:52;12.40;99.90
54684;DHT22;40582;53.100;6.686;2023-05-07T07:54:18;12.50;99.90
54684;DHT22;40582;53.100;6.686;2023-05-07T07:56:43;12.50;99.90
54684;DHT22;40582;53.100;6.686;2023-05-07T07:59:09;12.60;99.90
54684;DHT22;40582;53.100;6.686;2023-05-07T08:01:35;12.80;99.90
54684;DHT22;40582;53.100;6.686;2023-05-07T08:04:00;13.00;99.90
54684;DHT22;40582;53.100;6.686;2023-05-07T08:06:28;13.20;99.90
54684;DHT22;40582;53.100;6.686;2023-05-07T08:08:54;13.20;99.90
54684;DHT22;40582;53.100;6.686;2023-05-07T08:11:20;13.20;99.90
54684;DHT22;40582;53.100;6.686;2023-05-07T08:13:46;13.20;99.90
54684;DHT22;40582;53.100;6.686;2023-05-07T08:16:12;13.10;99.90
54684;DHT22;40582;53.100;6.686;2023-05-07T08:18:38;13.20;99.90
54684;DHT22;40582;53.100;6.686;2023-05-07T08:21:04;13.30;99.90
54684;DHT22;40582;53.100;6.686;2023-05-07T08:23:30;13.30;99.90
54684;DHT22;40582;53.100;6.686;2023-05-07T08:25:55;13.40;99.90
54684;DHT22;40582;53.100;6.686;2023-05-07T08:28:21;13.40;99.90
54684;DHT22;40582;53.100;6.686;2023-05-07T08:30:47;13.40;99.90
54684;DHT22;40582;53.100;6.686;2023-05-07T08:33:13;13.50;99.90
54684;DHT22;40582;53.100;6.686;2023-05-07T08:35:39;13.50;99.90
54684;DHT22;40582;53.100;6.686;2023-05-07T08:38:04;13.60;99.90
54684;DHT22;40582;53.100;6.686;2023-05-07T08:40:37;13.80;99.90
54684;DHT22;40582;53.100;6.686;2023-05-07T08:43:05;14.00;99.90
54684;DHT22;40582;53.100;6.686;2023-05-07T08:45:33;14.40;99.90
54684;DHT22;40582;53.100;6.686;2023-05-07T08:48:01;14.50;99.90
54684;DHT22;40582;53.100;6.686;2023-05-07T08:50:27;14.60;99.90
54684;DHT22;40582;53.100;6.686;2023-05-07T08:52:53;14.70;99.90
54684;DHT22;40582;53.100;6.686;2023-05-07T08:55:20;14.80;99.90
54684;DHT22;40582;53.100;6.686;2023-05-07T08:57:46;14.90;99.90
54684;DHT22;40582;53.100;6.686;2023-05-07T09:00:12;14.90;99.90
54684;DHT22;40582;53.100;6.686;2023-05-07T09:02:38;15.00;99.90
54684;DHT22;40582;53.100;6.686;2023-05-07T09:05:04;15.10;99.90
54684;DHT22;40582;53.100;6.686;2023-05-07T09:07:30;15.00;99.90
54684;DHT22;40582;53.100;6.686;2023-05-07T09:09:56;15.00;99.90
54684;DHT22;40582;53.100;6.686;2023-05-07T09:12:23;15.00;99.90
54684;DHT22;40582;53.100;6.686;2023-05-07T09:14:49;15.10;99.90
54684;DHT22;40582;53.100;6.686;2023-05-07T09:17:16;15.20;99.90
54684;DHT22;40582;53.100;6.686;2023-05-07T09:19:46;15.30;99.90
54684;DHT22;40582;53.100;6.686;2023-05-07T09:22:12;15.40;99.90
54684;DHT22;40582;53.100;6.686;2023-05-07T09:24:38;15.40;99.90
54684;DHT22;40582;53.100;6.686;2023-05-07T09:27:05;15.50;99.90
54684;DHT22;40582;53.100;6.686;2023-05-07T09:29:31;15.60;99.90
54684;DHT22;40582;53.100;6.686;2023-05-07T09:32:07;15.80;99.90
54684;DHT22;40582;53.100;6.686;2023-05-07T09:34:34;15.90;99.90
54684;DHT22;40582;53.100;6.686;2023-05-07T09:37:03;15.70;99.90
54684;DHT22;40582;53.100;6.686;2023-05-07T09:39:39;15.70;99.90
54684;DHT22;40582;53.100;6.686;2023-05-07T09:42:06;15.90;99.90
54684;DHT22;40582;53.100;6.686;2023-05-07T09:44:33;15.70;99.90
54684;DHT22;40582;53.100;6.686;2023-05-07T09:47:00;15.80;99.90
54684;DHT22;40582;53.100;6.686;2023-05-07T09:49:29;15.80;99.90
54684;DHT22;40582;53.100;6.686;2023-05-07T09:52:00;15.90;99.90
54684;DHT22;40582;53.100;6.686;2023-05-07T09:54:26;16.30;99.90
54684;DHT22;40582;53.100;6.686;2023-05-07T09:56:54;16.50;99.90
54684;DHT22;40582;53.100;6.686;2023-05-07T09:59:21;16.50;99.90
54684;DHT22;40582;53.100;6.686;2023-05-07T10:01:49;16.60;99.90
54684;DHT22;40582;53.100;6.686;2023-05-07T10:04:15;16.40;99.90
54684;DHT22;40582;53.100;6.686;2023-05-07T10:06:44;16.40;99.90
54684;DHT22;40582;53.100;6.686;2023-05-07T10:09:10;16.40;99.90
54684;DHT22;40582;53.100;6.686;2023-05-07T10:11:37;16.50;99.90
54684;DHT22;40582;53.100;6.686;2023-05-07T10:14:04;16.60;99.90
54684;DHT22;40582;53.100;6.686;2023-05-07T10:16:32;16.90;99.90
54684;DHT22;40582;53.100;6.686;2023-05-07T10:19:05;16.80;99.90
54684;DHT22;40582;53.100;6.686;2023-05-07T10:21:36;16.90;99.90
54684;DHT22;40582;53.100;6.686;2023-05-07T10:24:05;17.00;99.90
54684;DHT22;40582;53.100;6.686;2023-05-07T10:26:44;16.90;99.90
54684;DHT22;40582;53.100;6.686;2023-05-07T10:29:45;17.00;99.90
54684;DHT22;40582;53.100;6.686;2023-05-07T10:35:01;16.90;99.90
54684;DHT22;40582;53.100;6.686;2023-05-07T10:37:28;17.10;99.90
54684;DHT22;40582;53.100;6.686;2023-05-07T10:39:54;17.30;99.90
54684;DHT22;40582;53.100;6.686;2023-05-07T10:42:20;17.40;99.90
54684;DHT22;40582;53.100;6.686;2023-05-07T10:44:46;17.40;99.90
54684;DHT22;40582;53.100;6.686;2023-05-07T10:47:13;17.40;99.90
54684;DHT22;40582;53.100;6.686;2023-05-07T10:52:22;17.40;99.90
54684;DHT22;40582;53.100;6.686;2023-05-07T10:57:42;17.50;99.90
54684;DHT22;40582;53.100;6.686;2023-05-07T11:05:31;17.60;99.90
54684;DHT22;40582;53.100;6.686;2023-05-07T11:07:58;17.80;99.90
54684;DHT22;40582;53.100;6.686;2023-05-07T11:10:55;18.00;99.90
54684;DHT22;40582;53.100;6.686;2023-05-07T11:13:41;17.80;99.90
54684;DHT22;40582;53.100;6.686;2023-05-07T11:18:54;17.30;99.90
54684;DHT22;40582;53.100;6.686;2023-05-07T11:21:39;17.50;99.90
54684;DHT22;40582;53.100;6.686;2023-05-07T11:24:06;17.50;99.90
54684;DHT22;40582;53.100;6.686;2023-05-07T11:26:49;17.70;99.90
54684;DHT22;40582;53.100;6.686;2023-05-07T11:29:19;17.80;99.90
54684;DHT22;40582;53.100;6.686;2023-05-07T11:31:53;17.90;99.90
54684;DHT22;40582;53.100;6.686;2023-05-07T11:34:23;17.90;99.90
54684;DHT22;40582;53.100;6.686;2023-05-07T11:36:50;18.00;99.90
54684;DHT22;40582;53.100;6.686;2023-05-07T11:39:32;18.10;99.90
54684;DHT22;40582;53.100;6.686;2023-05-07T11:42:01;18.00;99.90
54684;DHT22;40582;53.100;6.686;2023-05-07T11:44:46;18.10;99.90
54684;DHT22;40582;53.100;6.686;2023-05-07T11:47:20;18.00;99.90
54684;DHT22;40582;53.100;6.686;2023-05-07T11:49:51;17.80;99.90
54684;DHT22;40582;53.100;6.686;2023-05-07T11:52:18;17.80;99.90
54684;DHT22;40582;53.100;6.686;2023-05-07T11:57:15;17.60;99.90
54684;DHT22;40582;53.100;6.686;2023-05-07T11:59:41;17.40;99.90
54684;DHT22;40582;53.100;6.686;2023-05-07T12:02:09;17.50;99.90
54684;DHT22;40582;53.100;6.686;2023-05-07T12:04:35;17.20;99.90
54684;DHT22;40582;53.100;6.686;2023-05-07T12:07:01;17.30;99.90
54684;DHT22;40582;53.100;6.686;2023-05-07T12:09:27;17.50;99.90
54684;DHT22;40582;53.100;6.686;2023-05-07T12:11:52;17.20;99.90
54684;DHT22;40582;53.100;6.686;2023-05-07T12:14:18;17.40;99.90
54684;DHT22;40582;53.100;6.686;2023-05-07T12:16:44;17.40;99.90
54684;DHT22;40582;53.100;6.686;2023-05-07T12:19:11;17.60;99.90
54684;DHT22;40582;53.100;6.686;2023-05-07T12:21:40;17.90;99.90
54684;DHT22;40582;53.100;6.686;2023-05-07T12:24:07;17.90;99.90
54684;DHT22;40582;53.100;6.686;2023-05-07T12:26:37;18.10;99.90
54684;DHT22;40582;53.100;6.686;2023-05-07T12:29:03;18.20;99.90
54684;DHT22;40582;53.100;6.686;2023-05-07T12:31:29;18.10;99.90
54684;DHT22;40582;53.100;6.686;2023-05-07T12:33:55;18.00;99.90
54684;DHT22;40582;53.100;6.686;2023-05-07T12:36:20;18.10;99.90
54684;DHT22;40582;53.100;6.686;2023-05-07T12:38:49;18.10;99.90
54684;DHT22;40582;53.100;6.686;2023-05-07T12:41:15;18.10;99.90
54684;DHT22;40582;53.100;6.686;2023-05-07T12:43:44;18.30;99.90
54684;DHT22;40582;53.100;6.686;2023-05-07T12:46:11;18.30;99.90
54684;DHT22;40582;53.100;6.686;2023-05-07T12:48:43;18.30;99.90
54684;DHT22;40582;53.100;6.686;2023-05-07T12:51:11;18.20;99.90
54684;DHT22;40582;53.100;6.686;2023-05-07T12:53:42;17.90;99.90
54684;DHT22;40582;53.100;6.686;2023-05-07T12:56:08;17.70;99.90
54684;DHT22;40582;53.100;6.686;2023-05-07T12:58:35;17.60;99.90
54684;DHT22;40582;53.100;6.686;2023-05-07T13:01:05;17.70;99.90
54684;DHT22;40582;53.100;6.686;2023-05-07T13:03:36;17.80;99.90
54684;DHT22;40582;53.100;6.686;2023-05-07T13:06:04;17.80;99.90
54684;DHT22;40582;53.100;6.686;2023-05-07T13:08:37;17.80;99.90
54684;DHT22;40582;53.100;6.686;2023-05-07T13:11:07;17.80;99.90
54684;DHT22;40582;53.100;6.686;2023-05-07T13:13:35;17.60;99.90
54684;DHT22;40582;53.100;6.686;2023-05-07T13:16:01;17.40;99.90
54684;DHT22;40582;53.100;6.686;2023-05-07T13:18:29;17.30;99.90
54684;DHT22;40582;53.100;6.686;2023-05-07T13:20:55;17.30;99.90
54684;DHT22;40582;53.100;6.686;2023-05-07T13:23:21;17.40;99.90
54684;DHT22;40582;53.100;6.686;2023-05-07T13:25:48;17.40;99.90
54684;DHT22;40582;53.100;6.686;2023-05-07T13:28:14;17.60;99.90
54684;DHT22;40582;53.100;6.686;2023-05-07T13:30:40;17.90;99.90
54684;DHT22;40582;53.100;6.686;2023-05-07T13:33:09;18.00;99.90
54684;DHT22;40582;53.100;6.686;2023-05-07T13:35:35;18.30;99.90
54684;DHT22;40582;53.100;6.686;2023-05-07T13:38:01;18.30;99.90
54684;DHT22;40582;53.100;6.686;2023-05-07T13:40:26;18.30;99.90
54684;DHT22;40582;53.100;6.686;2023-05-07T13:42:53;18.20;99.90
54684;DHT22;40582;53.100;6.686;2023-05-07T13:45:19;18.10;99.90
54684;DHT22;40582;53.100;6.686;2023-05-07T13:47:46;17.90;99.90
54684;DHT22;40582;53.100;6.686;2023-05-07T13:50:12;17.90;99.90
54684;DHT22;40582;53.100;6.686;2023-05-07T13:52:45;17.90;99.90
54684;DHT22;40582;53.100;6.686;2023-05-07T13:55:17;18.00;99.90
54684;DHT22;40582;53.100;6.686;2023-05-07T13:57:44;18.10;99.90
54684;DHT22;40582;53.100;6.686;2023-05-07T14:00:10;18.30;99.90
54684;DHT22;40582;53.100;6.686;2023-05-07T14:02:36;18.50;99.90
54684;DHT22;40582;53.100;6.686;2023-05-07T14:05:02;18.60;99.90
54684;DHT22;40582;53.100;6.686;2023-05-07T14:07:28;18.70;99.90
54684;DHT22;40582;53.100;6.686;2023-05-07T14:09:54;18.70;99.90
54684;DHT22;40582;53.100;6.686;2023-05-07T14:12:20;18.50;99.90
54684;DHT22;40582;53.100;6.686;2023-05-07T14:14:45;18.50;99.90
54684;DHT22;40582;53.100;6.686;2023-05-07T14:17:12;18.50;99.90
54684;DHT22;40582;53.100;6.686;2023-05-07T14:19:38;18.50;99.90
54684;DHT22;40582;53.100;6.686;2023-05-07T14:22:03;18.50;99.90
54684;DHT22;40582;53.100;6.686;2023-05-07T14:24:29;18.50;99.90
54684;DHT22;40582;53.100;6.686;2023-05-07T14:26:56;18.50;99.90
54684;DHT22;40582;53.100;6.686;2023-05-07T14:29:21;18.40;99.90
54684;DHT22;40582;53.100;6.686;2023-05-07T14:31:48;18.20;99.90
54684;DHT22;40582;53.100;6.686;2023-05-07T14:34:13;18.10;99.90
54684;DHT22;40582;53.100;6.686;2023-05-07T14:36:42;18.10;99.90
54684;DHT22;40582;53.100;6.686;2023-05-07T14:39:09;18.10;99.90
54684;DHT22;40582;53.100;6.686;2023-05-07T14:41:35;18.20;99.90
54684;DHT22;40582;53.100;6.686;2023-05-07T14:44:01;18.20;99.90
54684;DHT22;40582;53.100;6.686;2023-05-07T14:46:29;18.20;99.90
54684;DHT22;40582;53.100;6.686;2023-05-07T14:48:56;18.10;99.90
54684;DHT22;40582;53.100;6.686;2023-05-07T14:51:22;17.90;99.90
54684;DHT22;40582;53.100;6.686;2023-05-07T14:53:47;17.90;99.90
54684;DHT22;40582;53.100;6.686;2023-05-07T14:56:13;17.80;99.90
54684;DHT22;40582;53.100;6.686;2023-05-07T14:58:39;17.80;99.90
54684;DHT22;40582;53.100;6.686;2023-05-07T15:01:04;17.90;99.90
54684;DHT22;40582;53.100;6.686;2023-05-07T15:03:30;17.90;99.90
54684;DHT22;40582;53.100;6.686;2023-05-07T15:05:56;17.90;99.90
54684;DHT22;40582;53.100;6.686;2023-05-07T15:08:21;17.90;99.90
54684;DHT22;40582;53.100;6.686;2023-05-07T15:10:47;17.80;99.90
54684;DHT22;40582;53.100;6.686;2023-05-07T15:13:13;17.70;99.90
54684;DHT22;40582;53.100;6.686;2023-05-07T15:15:39;17.80;99.90
54684;DHT22;40582;53.100;6.686;2023-05-07T15:18:05;17.80;99.90
54684;DHT22;40582;53.100;6.686;2023-05-07T15:20:31;17.90;99.90
54684;DHT22;40582;53.100;6.686;2023-05-07T15:22:56;18.10;99.90
54684;DHT22;40582;53.100;6.686;2023-05-07T15:25:23;18.20;99.90
54684;DHT22;40582;53.100;6.686;2023-05-07T15:27:48;18.40;99.90
54684;DHT22;40582;53.100;6.686;2023-05-07T15:30:14;18.70;99.90
54684;DHT22;40582;53.100;6.686;2023-05-07T15:32:41;18.90;99.90
54684;DHT22;40582;53.100;6.686;2023-05-07T15:35:07;19.10;99.90
54684;DHT22;40582;53.100;6.686;2023-05-07T15:37:33;19.30;99.90
54684;DHT22;40582;53.100;6.686;2023-05-07T15:39:59;19.30;99.90
54684;DHT22;40582;53.100;6.686;2023-05-07T15:42:27;19.30;99.90
54684;DHT22;40582;53.100;6.686;2023-05-07T15:44:53;19.40;99.90
54684;DHT22;40582;53.100;6.686;2023-05-07T15:47:19;19.30;99.90